sensor_id;sensor_type;location;lat;lon;timestamp;P1;durP1;ratioP1;P2;durP2;ratioP2
38935;SDS011;25541;47.458;9.644;2022-09-12T02:48:28;0.95;;;0.20;;
38935;SDS011;25541;47.458;9.644;2022-09-12T02:50:57;2.53;;;0.20;;
38935;SDS011;25541;47.458;9.644;2022-09-12T02:53:24;2.35;;;0.30;;
38935;SDS011;25541;47.458;9.644;2022-09-12T02:55:50;1.17;;;0.22;;
38935;SDS011;25541;47.458;9.644;2022-09-12T02:58:17;2.75;;;0.38;;
38935;SDS011;25541;47.458;9.644;2022-09-12T03:00:48;1.73;;;0.40;;
38935;SDS011;25541;47.458;9.644;2022-09-12T03:08:52;1.48;;;0.20;;
38935;SDS011;25541;47.458;9.644;2022-09-12T03:14:52;0.95;;;0.20;;
38935;SDS011;25541;47.458;9.644;2022-09-12T03:20:23;2.35;;;0.50;;
38935;SDS011;25541;47.458;9.644;2022-09-12T03:23:02;1.48;;;0.30;;
38935;SDS011;25541;47.458;9.644;2022-09-12T03:25:39;2.88;;;0.20;;
38935;SDS011;25541;47.458;9.644;2022-09-12T03:28:13;0.80;;;0.20;;
38935;SDS011;25541;47.458;9.644;2022-09-12T03:30:40;1.23;;;0.30;;
38935;SDS011;25541;47.458;9.644;2022-09-12T03:33:12;2.72;;;0.32;;
38935;SDS011;25541;47.458;9.644;2022-09-12T03:35:43;0.85;;;0.10;;
38935;SDS011;25541;47.458;9.644;2022-09-12T03:38:10;3.95;;;0.30;;
38935;SDS011;25541;47.458;9.644;2022-09-12T03:40:36;1.00;;;0.40;;
38935;SDS011;25541;47.458;9.644;2022-09-12T03:43:03;1.98;;;0.20;;
38935;SDS011;25541;47.458;9.644;2022-09-12T03:45:30;1.42;;;0.20;;
38935;SDS011;25541;47.458;9.644;2022-09-12T03:47:56;1.42;;;0.30;;
38935;SDS011;25541;47.458;9.644;2022-09-12T03:50:22;1.48;;;0.20;;
38935;SDS011;25541;47.458;9.644;2022-09-12T03:52:48;1.40;;;0.20;;
38935;SDS011;25541;47.458;9.644;2022-09-12T03:55:13;1.33;;;0.30;;
38935;SDS011;25541;47.458;9.644;2022-09-12T03:57:39;2.38;;;0.20;;
38935;SDS011;25541;47.458;9.644;2022-09-12T04:00:05;1.45;;;0.30;;
38935;SDS011;25541;47.458;9.644;2022-09-12T04:02:32;1.88;;;0.30;;
38935;SDS011;25541;47.458;9.644;2022-09-12T04:04:59;1.77;;;0.22;;
38935;SDS011;25541;47.458;9.644;2022-09-12T04:07:24;1.08;;;0.20;;
38935;SDS011;25541;47.458;9.644;2022-09-12T04:09:50;2.40;;;0.28;;
38935;SDS011;25541;47.458;9.644;2022-09-12T04:12:17;1.70;;;0.30;;
38935;SDS011;25541;47.458;9.644;2022-09-12T04:14:43;2.08;;;0.30;;
38935;SDS011;25541;47.458;9.644;2022-09-12T04:17:09;1.58;;;0.30;;
38935;SDS011;25541;47.458;9.644;2022-09-12T04:19:35;8.18;;;0.50;;
38935;SDS011;25541;47.458;9.644;2022-09-12T04:22:00;1.38;;;0.30;;
38935;SDS011;25541;47.458;9.644;2022-09-12T04:24:26;1.00;;;0.13;;
38935;SDS011;25541;47.458;9.644;2022-09-12T04:26:52;2.20;;;0.32;;
38935;SDS011;25541;47.458;9.644;2022-09-12T04:29:18;1.33;;;0.10;;
38935;SDS011;25541;47.458;9.644;2022-09-12T04:31:43;1.33;;;0.60;;
38935;SDS011;25541;47.458;9.644;2022-09-12T04:34:09;1.13;;;0.30;;
38935;SDS011;25541;47.458;9.644;2022-09-12T04:36:35;3.97;;;0.45;;
38935;SDS011;25541;47.458;9.644;2022-09-12T04:39:01;1.58;;;0.40;;
38935;SDS011;25541;47.458;9.644;2022-09-12T04:41:33;2.15;;;0.60;;
38935;SDS011;25541;47.458;9.644;2022-09-12T04:44:01;1.33;;;0.20;;
38935;SDS011;25541;47.458;9.644;2022-09-12T04:46:30;1.85;;;0.30;;
38935;SDS011;25541;47.458;9.644;2022-09-12T04:48:58;1.17;;;0.30;;
38935;SDS011;25541;47.458;9.644;2022-09-12T04:51:24;1.67;;;0.20;;
38935;SDS011;25541;47.458;9.644;2022-09-12T04:53:54;2.92;;;0.20;;
38935;SDS011;25541;47.458;9.644;2022-09-12T04:56:22;3.00;;;0.30;;
38935;SDS011;25541;47.458;9.644;2022-09-12T04:58:48;2.50;;;0.30;;
38935;SDS011;25541;47.458;9.644;2022-09-12T05:01:20;2.17;;;0.40;;
38935;SDS011;25541;47.458;9.644;2022-09-12T05:03:47;2.97;;;0.40;;
38935;SDS011;25541;47.458;9.644;2022-09-12T05:06:18;2.70;;;0.22;;
38935;SDS011;25541;47.458;9.644;2022-09-12T05:08:46;6.28;;;0.50;;
38935;SDS011;25541;47.458;9.644;2022-09-12T05:11:12;4.15;;;0.43;;
38935;SDS011;25541;47.458;9.644;2022-09-12T05:13:40;1.20;;;0.30;;
38935;SDS011;25541;47.458;9.644;2022-09-12T05:16:08;2.15;;;0.30;;
38935;SDS011;25541;47.458;9.644;2022-09-12T05:18:36;2.35;;;0.22;;
38935;SDS011;25541;47.458;9.644;2022-09-12T05:21:03;2.10;;;0.20;;
38935;SDS011;25541;47.458;9.644;2022-09-12T05:23:31;3.72;;;0.22;;
38935;SDS011;25541;47.458;9.644;2022-09-12T05:25:58;1.85;;;0.20;;
38935;SDS011;25541;47.458;9.644;2022-09-12T05:28:28;0.80;;;0.20;;
38935;SDS011;25541;47.458;9.644;2022-09-12T05:31:02;1.30;;;0.30;;
38935;SDS011;25541;47.458;9.644;2022-09-12T05:33:32;1.30;;;0.35;;
38935;SDS011;25541;47.458;9.644;2022-09-12T05:35:59;1.42;;;0.30;;
38935;SDS011;25541;47.458;9.644;2022-09-12T05:38:25;2.28;;;0.30;;
38935;SDS011;25541;47.458;9.644;2022-09-12T05:43:30;3.42;;;0.60;;
38935;SDS011;25541;47.458;9.644;2022-09-12T05:46:00;1.48;;;0.30;;
38935;SDS011;25541;47.458;9.644;2022-09-12T05:48:27;5.03;;;0.40;;
38935;SDS011;25541;47.458;9.644;2022-09-12T05:51:00;3.58;;;0.80;;
38935;SDS011;25541;47.458;9.644;2022-09-12T05:53:30;1.75;;;0.30;;
38935;SDS011;25541;47.458;9.644;2022-09-12T05:56:29;0.75;;;0.25;;
38935;SDS011;25541;47.458;9.644;2022-09-12T05:58:53;3.25;;;0.30;;
38935;SDS011;25541;47.458;9.644;2022-09-12T06:01:19;2.45;;;0.40;;
38935;SDS011;25541;47.458;9.644;2022-09-12T06:03:50;2.05;;;0.40;;
38935;SDS011;25541;47.458;9.644;2022-09-12T06:06:17;2.67;;;0.38;;
38935;SDS011;25541;47.458;9.644;2022-09-12T06:08:46;3.17;;;0.52;;
38935;SDS011;25541;47.458;9.644;2022-09-12T06:11:14;1.95;;;0.43;;
38935;SDS011;25541;47.458;9.644;2022-09-12T06:13:44;2.40;;;0.45;;
38935;SDS011;25541;47.458;9.644;2022-09-12T06:16:12;1.15;;;0.40;;
38935;SDS011;25541;47.458;9.644;2022-09-12T06:18:46;3.50;;;0.50;;
38935;SDS011;25541;47.458;9.644;2022-09-12T06:21:13;4.70;;;0.50;;
38935;SDS011;25541;47.458;9.644;2022-09-12T06:23:39;1.80;;;0.63;;
38935;SDS011;25541;47.458;9.644;2022-09-12T06:26:06;1.50;;;0.60;;
38935;SDS011;25541;47.458;9.644;2022-09-12T06:28:34;1.95;;;0.57;;
38935;SDS011;25541;47.458;9.644;2022-09-12T06:31:05;2.70;;;0.80;;
38935;SDS011;25541;47.458;9.644;2022-09-12T06:33:33;4.00;;;0.50;;
38935;SDS011;25541;47.458;9.644;2022-09-12T06:36:01;3.33;;;0.57;;
38935;SDS011;25541;47.458;9.644;2022-09-12T06:38:31;2.28;;;0.60;;
38935;SDS011;25541;47.458;9.644;2022-09-12T06:40:57;2.63;;;0.88;;
38935;SDS011;25541;47.458;9.644;2022-09-12T06:43:24;4.03;;;1.00;;
38935;SDS011;25541;47.458;9.644;2022-09-12T06:45:50;3.60;;;1.00;;
38935;SDS011;25541;47.458;9.644;2022-09-12T06:48:16;2.45;;;0.93;;
38935;SDS011;25541;47.458;9.644;2022-09-12T06:50:42;5.15;;;1.00;;
38935;SDS011;25541;47.458;9.644;2022-09-12T06:53:08;3.22;;;0.80;;
38935;SDS011;25541;47.458;9.644;2022-09-12T06:55:33;5.20;;;0.90;;
38935;SDS011;25541;47.458;9.644;2022-09-12T06:57:59;4.32;;;1.10;;
38935;SDS011;25541;47.458;9.644;2022-09-12T07:00:25;2.90;;;1.25;;
38935;SDS011;25541;47.458;9.644;2022-09-12T07:02:54;3.58;;;1.02;;
38935;SDS011;25541;47.458;9.644;2022-09-12T07:05:22;2.40;;;1.13;;
38935;SDS011;25541;47.458;9.644;2022-09-12T07:07:48;1.73;;;1.20;;
38935;SDS011;25541;47.458;9.644;2022-09-12T07:10:14;3.63;;;0.50;;
38935;SDS011;25541;47.458;9.644;2022-09-12T07:12:39;2.03;;;1.00;;
38935;SDS011;25541;47.458;9.644;2022-09-12T07:15:05;2.63;;;1.30;;
38935;SDS011;25541;47.458;9.644;2022-09-12T07:17:31;0.95;;;0.43;;
38935;SDS011;25541;47.458;9.644;2022-09-12T07:19:57;7.90;;;1.40;;
38935;SDS011;25541;47.458;9.644;2022-09-12T07:22:22;1.75;;;1.38;;
38935;SDS011;25541;47.458;9.644;2022-09-12T07:24:48;1.83;;;1.55;;
38935;SDS011;25541;47.458;9.644;2022-09-12T07:27:14;3.15;;;1.20;;
38935;SDS011;25541;47.458;9.644;2022-09-12T07:29:40;2.58;;;1.58;;
38935;SDS011;25541;47.458;9.644;2022-09-12T07:32:05;2.13;;;1.70;;
38935;SDS011;25541;47.458;9.644;2022-09-12T07:34:31;2.20;;;1.75;;
38935;SDS011;25541;47.458;9.644;2022-09-12T07:36:58;1.52;;;1.30;;
38935;SDS011;25541;47.458;9.644;2022-09-12T07:39:23;2.05;;;1.70;;
38935;SDS011;25541;47.458;9.644;2022-09-12T07:41:49;2.20;;;2.00;;
38935;SDS011;25541;47.458;9.644;2022-09-12T07:44:15;2.28;;;1.60;;
38935;SDS011;25541;47.458;9.644;2022-09-12T07:46:41;1.63;;;1.52;;
38935;SDS011;25541;47.458;9.644;2022-09-12T07:49:07;4.55;;;1.80;;
38935;SDS011;25541;47.458;9.644;2022-09-12T07:51:32;1.88;;;1.60;;
38935;SDS011;25541;47.458;9.644;2022-09-12T07:53:59;1.77;;;0.90;;
38935;SDS011;25541;47.458;9.644;2022-09-12T07:56:25;11.57;;;2.80;;
38935;SDS011;25541;47.458;9.644;2022-09-12T07:58:52;4.40;;;2.33;;
38935;SDS011;25541;47.458;9.644;2022-09-12T08:01:20;6.13;;;2.40;;
38935;SDS011;25541;47.458;9.644;2022-09-12T08:03:52;3.30;;;3.00;;
38935;SDS011;25541;47.458;9.644;2022-09-12T08:06:22;2.92;;;2.72;;
38935;SDS011;25541;47.458;9.644;2022-09-12T08:08:49;2.72;;;2.53;;
38935;SDS011;25541;47.458;9.644;2022-09-12T08:11:17;3.65;;;3.35;;
38935;SDS011;25541;47.458;9.644;2022-09-12T08:13:44;3.35;;;3.05;;
38935;SDS011;25541;47.458;9.644;2022-09-12T08:16:11;3.47;;;2.75;;
38935;SDS011;25541;47.458;9.644;2022-09-12T08:18:38;4.68;;;2.83;;
38935;SDS011;25541;47.458;9.644;2022-09-12T08:21:06;12.57;;;2.92;;
38935;SDS011;25541;47.458;9.644;2022-09-12T08:23:35;4.22;;;3.10;;
38935;SDS011;25541;47.458;9.644;2022-09-12T08:26:02;14.85;;;3.25;;
38935;SDS011;25541;47.458;9.644;2022-09-12T08:28:29;3.78;;;3.47;;
38935;SDS011;25541;47.458;9.644;2022-09-12T08:30:59;6.53;;;3.58;;
38935;SDS011;25541;47.458;9.644;2022-09-12T08:33:29;4.07;;;3.20;;
38935;SDS011;25541;47.458;9.644;2022-09-12T08:36:05;5.45;;;2.30;;
38935;SDS011;25541;47.458;9.644;2022-09-12T08:38:35;5.30;;;4.07;;
38935;SDS011;25541;47.458;9.644;2022-09-12T08:48:57;4.20;;;3.90;;
38935;SDS011;25541;47.458;9.644;2022-09-12T08:51:25;5.93;;;2.70;;
38935;SDS011;25541;47.458;9.644;2022-09-12T08:53:52;7.03;;;4.95;;
38935;SDS011;25541;47.458;9.644;2022-09-12T08:56:21;5.97;;;5.53;;
38935;SDS011;25541;47.458;9.644;2022-09-12T08:58:48;4.00;;;3.63;;
38935;SDS011;25541;47.458;9.644;2022-09-12T09:11:40;4.65;;;3.13;;
38935;SDS011;25541;47.458;9.644;2022-09-12T09:14:47;6.20;;;5.70;;
38935;SDS011;25541;47.458;9.644;2022-09-12T09:17:40;5.55;;;5.15;;
38935;SDS011;25541;47.458;9.644;2022-09-12T09:23:11;5.68;;;5.28;;
38935;SDS011;25541;47.458;9.644;2022-09-12T09:25:49;6.95;;;6.35;;
38935;SDS011;25541;47.458;9.644;2022-09-12T09:28:18;8.60;;;7.72;;
38935;SDS011;25541;47.458;9.644;2022-09-12T09:30:49;8.95;;;8.25;;
38935;SDS011;25541;47.458;9.644;2022-09-12T09:33:22;9.15;;;8.30;;
38935;SDS011;25541;47.458;9.644;2022-09-12T09:36:03;9.20;;;8.40;;
38935;SDS011;25541;47.458;9.644;2022-09-12T09:38:56;8.68;;;7.93;;
38935;SDS011;25541;47.458;9.644;2022-09-12T09:44:05;7.57;;;6.90;;
38935;SDS011;25541;47.458;9.644;2022-09-12T09:46:31;9.05;;;8.32;;
38935;SDS011;25541;47.458;9.644;2022-09-12T09:48:57;8.73;;;8.00;;
38935;SDS011;25541;47.458;9.644;2022-09-12T09:51:28;9.60;;;8.75;;
38935;SDS011;25541;47.458;9.644;2022-09-12T09:54:12;7.38;;;6.80;;
38935;SDS011;25541;47.458;9.644;2022-09-12T09:56:45;7.28;;;6.68;;
38935;SDS011;25541;47.458;9.644;2022-09-12T10:01:50;7.63;;;6.95;;
38935;SDS011;25541;47.458;9.644;2022-09-12T10:04:24;6.18;;;5.68;;
38935;SDS011;25541;47.458;9.644;2022-09-12T10:06:53;6.97;;;6.45;;
38935;SDS011;25541;47.458;9.644;2022-09-12T10:12:01;6.55;;;5.95;;
38935;SDS011;25541;47.458;9.644;2022-09-12T10:15:02;5.78;;;5.32;;
38935;SDS011;25541;47.458;9.644;2022-09-12T10:17:42;6.82;;;5.65;;
38935;SDS011;25541;47.458;9.644;2022-09-12T10:20:33;6.95;;;6.43;;
38935;SDS011;25541;47.458;9.644;2022-09-12T10:23:28;5.32;;;4.82;;
38935;SDS011;25541;47.458;9.644;2022-09-12T10:25:51;6.30;;;5.68;;
38935;SDS011;25541;47.458;9.644;2022-09-12T10:29:02;6.43;;;5.22;;
38935;SDS011;25541;47.458;9.644;2022-09-12T10:31:13;5.05;;;4.53;;
38935;SDS011;25541;47.458;9.644;2022-09-12T10:33:49;4.22;;;3.75;;
38935;SDS011;25541;47.458;9.644;2022-09-12T10:36:17;4.03;;;3.63;;
38935;SDS011;25541;47.458;9.644;2022-09-12T10:38:56;4.85;;;3.00;;
38935;SDS011;25541;47.458;9.644;2022-09-12T10:41:24;4.55;;;2.70;;
38935;SDS011;25541;47.458;9.644;2022-09-12T10:43:51;5.10;;;2.90;;
38935;SDS011;25541;47.458;9.644;2022-09-12T10:48:42;2.63;;;1.60;;
38935;SDS011;25541;47.458;9.644;2022-09-12T10:51:28;2.85;;;2.28;;
38935;SDS011;25541;47.458;9.644;2022-09-12T10:53:58;5.95;;;1.95;;
38935;SDS011;25541;47.458;9.644;2022-09-12T10:56:30;3.08;;;2.03;;
38935;SDS011;25541;47.458;9.644;2022-09-12T11:12:50;2.17;;;1.13;;
38935;SDS011;25541;47.458;9.644;2022-09-12T11:29:23;1.50;;;0.90;;
38935;SDS011;25541;47.458;9.644;2022-09-12T11:32:13;2.08;;;0.45;;
38935;SDS011;25541;47.458;9.644;2022-09-12T11:39:51;1.40;;;0.63;;
38935;SDS011;25541;47.458;9.644;2022-09-12T11:42:28;1.45;;;0.80;;
38935;SDS011;25541;47.458;9.644;2022-09-12T11:45:22;1.17;;;0.50;;
38935;SDS011;25541;47.458;9.644;2022-09-12T11:47:54;1.13;;;0.73;;
38935;SDS011;25541;47.458;9.644;2022-09-12T11:50:26;1.95;;;0.88;;
38935;SDS011;25541;47.458;9.644;2022-09-12T11:52:54;1.17;;;0.60;;
38935;SDS011;25541;47.458;9.644;2022-09-12T11:55:28;1.65;;;0.68;;
38935;SDS011;25541;47.458;9.644;2022-09-12T11:58:03;1.90;;;0.75;;
38935;SDS011;25541;47.458;9.644;2022-09-12T12:00:46;2.50;;;0.80;;
38935;SDS011;25541;47.458;9.644;2022-09-12T12:03:31;3.63;;;1.00;;
38935;SDS011;25541;47.458;9.644;2022-09-12T12:06:04;1.25;;;0.82;;
38935;SDS011;25541;47.458;9.644;2022-09-12T12:08:37;2.88;;;0.82;;
38935;SDS011;25541;47.458;9.644;2022-09-12T12:11:05;1.35;;;0.60;;
38935;SDS011;25541;47.458;9.644;2022-09-12T12:16:01;5.70;;;0.63;;
38935;SDS011;25541;47.458;9.644;2022-09-12T12:18:31;1.02;;;0.70;;
38935;SDS011;25541;47.458;9.644;2022-09-12T12:21:18;1.27;;;0.35;;
38935;SDS011;25541;47.458;9.644;2022-09-12T12:42:55;1.42;;;0.75;;
38935;SDS011;25541;47.458;9.644;2022-09-12T12:47:43;1.63;;;0.73;;
38935;SDS011;25541;47.458;9.644;2022-09-12T13:01:14;1.10;;;0.60;;
38935;SDS011;25541;47.458;9.644;2022-09-12T13:03:43;2.03;;;0.32;;
38935;SDS011;25541;47.458;9.644;2022-09-12T13:09:02;2.25;;;0.98;;
38935;SDS011;25541;47.458;9.644;2022-09-12T13:11:35;2.55;;;0.75;;
38935;SDS011;25541;47.458;9.644;2022-09-12T13:14:04;1.23;;;0.55;;
38935;SDS011;25541;47.458;9.644;2022-09-12T13:16:37;2.78;;;1.17;;
38935;SDS011;25541;47.458;9.644;2022-09-12T13:19:19;1.85;;;0.60;;
38935;SDS011;25541;47.458;9.644;2022-09-12T13:21:56;0.80;;;0.20;;
38935;SDS011;25541;47.458;9.644;2022-09-12T13:24:26;1.60;;;0.20;;
38935;SDS011;25541;47.458;9.644;2022-09-12T13:26:52;1.10;;;0.57;;
38935;SDS011;25541;47.458;9.644;2022-09-12T13:29:19;1.10;;;0.70;;
38935;SDS011;25541;47.458;9.644;2022-09-12T13:31:59;2.83;;;0.85;;
38935;SDS011;25541;47.458;9.644;2022-09-12T13:34:27;1.95;;;0.70;;
38935;SDS011;25541;47.458;9.644;2022-09-12T13:37:15;2.63;;;0.68;;
38935;SDS011;25541;47.458;9.644;2022-09-12T13:42:52;1.20;;;0.50;;
38935;SDS011;25541;47.458;9.644;2022-09-12T13:45:34;1.30;;;0.60;;
38935;SDS011;25541;47.458;9.644;2022-09-12T13:48:03;1.45;;;0.57;;
38935;SDS011;25541;47.458;9.644;2022-09-12T13:50:40;0.90;;;0.40;;
38935;SDS011;25541;47.458;9.644;2022-09-12T13:53:13;1.42;;;0.50;;
38935;SDS011;25541;47.458;9.644;2022-09-12T14:03:40;2.22;;;0.55;;
38935;SDS011;25541;47.458;9.644;2022-09-12T14:11:47;3.63;;;1.00;;
38935;SDS011;25541;47.458;9.644;2022-09-12T14:16:51;1.58;;;0.70;;
38935;SDS011;25541;47.458;9.644;2022-09-12T14:19:17;1.02;;;0.20;;
38935;SDS011;25541;47.458;9.644;2022-09-12T14:21:44;2.00;;;0.55;;
38935;SDS011;25541;47.458;9.644;2022-09-12T14:24:10;1.45;;;0.70;;
38935;SDS011;25541;47.458;9.644;2022-09-12T14:26:38;0.93;;;0.40;;
38935;SDS011;25541;47.458;9.644;2022-09-12T14:29:06;0.90;;;0.50;;
38935;SDS011;25541;47.458;9.644;2022-09-12T14:31:33;1.45;;;0.55;;
38935;SDS011;25541;47.458;9.644;2022-09-12T14:36:38;1.80;;;0.45;;
38935;SDS011;25541;47.458;9.644;2022-09-12T14:42:11;1.63;;;0.47;;
38935;SDS011;25541;47.458;9.644;2022-09-12T14:44:39;1.40;;;0.40;;
38935;SDS011;25541;47.458;9.644;2022-09-12T14:47:11;0.88;;;0.47;;
38935;SDS011;25541;47.458;9.644;2022-09-12T14:49:40;1.02;;;0.60;;
38935;SDS011;25541;47.458;9.644;2022-09-12T14:52:07;3.22;;;0.43;;
38935;SDS011;25541;47.458;9.644;2022-09-12T15:00:04;1.25;;;0.73;;
38935;SDS011;25541;47.458;9.644;2022-09-12T15:02:39;3.45;;;0.30;;
38935;SDS011;25541;47.458;9.644;2022-09-12T15:10:00;0.68;;;0.35;;
38935;SDS011;25541;47.458;9.644;2022-09-12T15:12:29;0.52;;;0.38;;
38935;SDS011;25541;47.458;9.644;2022-09-12T15:14:58;0.70;;;0.30;;
38935;SDS011;25541;47.458;9.644;2022-09-12T15:17:36;1.15;;;0.90;;
38935;SDS011;25541;47.458;9.644;2022-09-12T15:20:02;0.60;;;0.40;;
38935;SDS011;25541;47.458;9.644;2022-09-12T15:22:29;1.73;;;0.38;;
38935;SDS011;25541;47.458;9.644;2022-09-12T15:24:57;1.02;;;0.47;;
38935;SDS011;25541;47.458;9.644;2022-09-12T15:27:23;0.68;;;0.30;;
38935;SDS011;25541;47.458;9.644;2022-09-12T15:29:50;0.60;;;0.30;;
38935;SDS011;25541;47.458;9.644;2022-09-12T15:32:25;0.93;;;0.32;;
38935;SDS011;25541;47.458;9.644;2022-09-12T15:34:53;1.13;;;0.20;;
38935;SDS011;25541;47.458;9.644;2022-09-12T15:37:19;0.93;;;0.40;;
38935;SDS011;25541;47.458;9.644;2022-09-12T15:39:48;0.93;;;0.28;;
38935;SDS011;25541;47.458;9.644;2022-09-12T15:42:14;0.88;;;0.32;;
38935;SDS011;25541;47.458;9.644;2022-09-12T15:44:41;2.78;;;0.55;;
38935;SDS011;25541;47.458;9.644;2022-09-12T15:47:08;1.58;;;0.38;;
38935;SDS011;25541;47.458;9.644;2022-09-12T15:49:36;0.77;;;0.28;;
38935;SDS011;25541;47.458;9.644;2022-09-12T15:52:02;0.88;;;0.20;;
38935;SDS011;25541;47.458;9.644;2022-09-12T15:54:28;2.17;;;0.10;;
38935;SDS011;25541;47.458;9.644;2022-09-12T15:56:54;1.33;;;0.85;;
38935;SDS011;25541;47.458;9.644;2022-09-12T15:59:19;3.60;;;0.40;;
38935;SDS011;25541;47.458;9.644;2022-09-12T16:01:45;1.92;;;0.20;;
38935;SDS011;25541;47.458;9.644;2022-09-12T16:04:20;0.80;;;0.32;;
38935;SDS011;25541;47.458;9.644;2022-09-12T16:06:48;2.13;;;0.22;;
38935;SDS011;25541;47.458;9.644;2022-09-12T16:09:15;0.93;;;0.47;;
38935;SDS011;25541;47.458;9.644;2022-09-12T16:11:40;0.82;;;0.13;;
38935;SDS011;25541;47.458;9.644;2022-09-12T16:14:06;1.55;;;0.65;;
38935;SDS011;25541;47.458;9.644;2022-09-12T16:16:32;0.85;;;0.20;;
38935;SDS011;25541;47.458;9.644;2022-09-12T16:18:59;0.82;;;0.40;;
38935;SDS011;25541;47.458;9.644;2022-09-12T16:21:24;3.03;;;0.63;;
38935;SDS011;25541;47.458;9.644;2022-09-12T16:23:50;1.00;;;0.40;;
38935;SDS011;25541;47.458;9.644;2022-09-12T16:26:16;1.13;;;0.22;;
38935;SDS011;25541;47.458;9.644;2022-09-12T16:28:42;1.58;;;0.35;;
38935;SDS011;25541;47.458;9.644;2022-09-12T16:31:09;1.15;;;0.30;;
38935;SDS011;25541;47.458;9.644;2022-09-12T16:33:36;1.70;;;0.88;;
38935;SDS011;25541;47.458;9.644;2022-09-12T16:36:04;1.63;;;0.30;;
38935;SDS011;25541;47.458;9.644;2022-09-12T16:38:32;1.50;;;0.68;;
38935;SDS011;25541;47.458;9.644;2022-09-12T16:41:02;1.50;;;0.43;;
38935;SDS011;25541;47.458;9.644;2022-09-12T16:43:29;1.50;;;0.70;;
38935;SDS011;25541;47.458;9.644;2022-09-12T16:46:15;1.58;;;0.50;;
38935;SDS011;25541;47.458;9.644;2022-09-12T16:48:54;1.30;;;0.40;;
38935;SDS011;25541;47.458;9.644;2022-09-12T16:51:25;0.95;;;0.30;;
38935;SDS011;25541;47.458;9.644;2022-09-12T16:53:55;1.02;;;0.30;;
38935;SDS011;25541;47.458;9.644;2022-09-12T16:56:22;1.00;;;0.40;;
38935;SDS011;25541;47.458;9.644;2022-09-12T16:58:48;1.05;;;0.30;;
38935;SDS011;25541;47.458;9.644;2022-09-12T17:01:17;0.93;;;0.40;;
38935;SDS011;25541;47.458;9.644;2022-09-12T17:03:44;1.00;;;0.32;;
38935;SDS011;25541;47.458;9.644;2022-09-12T17:06:11;0.80;;;0.30;;
38935;SDS011;25541;47.458;9.644;2022-09-12T17:08:46;1.08;;;0.30;;
38935;SDS011;25541;47.458;9.644;2022-09-12T17:11:14;2.05;;;0.20;;
38935;SDS011;25541;47.458;9.644;2022-09-12T17:13:47;1.13;;;0.40;;
38935;SDS011;25541;47.458;9.644;2022-09-12T17:16:27;2.05;;;0.30;;
38935;SDS011;25541;47.458;9.644;2022-09-12T17:18:53;1.38;;;0.20;;
38935;SDS011;25541;47.458;9.644;2022-09-12T17:21:20;1.58;;;0.30;;
38935;SDS011;25541;47.458;9.644;2022-09-12T17:23:46;0.70;;;0.30;;
38935;SDS011;25541;47.458;9.644;2022-09-12T17:26:12;2.20;;;0.30;;
38935;SDS011;25541;47.458;9.644;2022-09-12T17:28:39;0.70;;;0.30;;
38935;SDS011;25541;47.458;9.644;2022-09-12T17:31:06;1.60;;;0.30;;
38935;SDS011;25541;47.458;9.644;2022-09-12T17:33:34;1.52;;;0.40;;
38935;SDS011;25541;47.458;9.644;2022-09-12T17:36:07;2.05;;;0.47;;
38935;SDS011;25541;47.458;9.644;2022-09-12T17:38:39;0.85;;;0.30;;
38935;SDS011;25541;47.458;9.644;2022-09-12T17:41:05;2.08;;;0.98;;
38935;SDS011;25541;47.458;9.644;2022-09-12T17:43:45;1.52;;;0.43;;
38935;SDS011;25541;47.458;9.644;2022-09-12T17:46:14;1.00;;;0.50;;
38935;SDS011;25541;47.458;9.644;2022-09-12T17:48:41;1.27;;;0.30;;
38935;SDS011;25541;47.458;9.644;2022-09-12T17:51:07;3.80;;;0.50;;
38935;SDS011;25541;47.458;9.644;2022-09-12T17:53:38;2.28;;;0.50;;
38935;SDS011;25541;47.458;9.644;2022-09-12T17:56:04;2.65;;;0.50;;
38935;SDS011;25541;47.458;9.644;2022-09-12T17:58:31;2.22;;;0.82;;
38935;SDS011;25541;47.458;9.644;2022-09-12T18:01:04;1.83;;;0.70;;
38935;SDS011;25541;47.458;9.644;2022-09-12T18:03:54;2.10;;;0.50;;
38935;SDS011;25541;47.458;9.644;2022-09-12T18:06:23;3.10;;;0.45;;
38935;SDS011;25541;47.458;9.644;2022-09-12T18:08:49;1.02;;;0.50;;
38935;SDS011;25541;47.458;9.644;2022-09-12T18:11:15;1.83;;;0.40;;
38935;SDS011;25541;47.458;9.644;2022-09-12T18:13:40;3.35;;;0.30;;
38935;SDS011;25541;47.458;9.644;2022-09-12T18:16:07;2.22;;;0.30;;
38935;SDS011;25541;47.458;9.644;2022-09-12T18:18:35;1.63;;;0.65;;
38935;SDS011;25541;47.458;9.644;2022-09-12T18:21:02;2.08;;;0.40;;
38935;SDS011;25541;47.458;9.644;2022-09-12T18:23:29;1.88;;;0.60;;
38935;SDS011;25541;47.458;9.644;2022-09-12T18:25:59;2.63;;;0.52;;
38935;SDS011;25541;47.458;9.644;2022-09-12T18:28:31;1.75;;;0.47;;
38935;SDS011;25541;47.458;9.644;2022-09-12T18:30:57;2.25;;;0.30;;
38935;SDS011;25541;47.458;9.644;2022-09-12T18:33:22;2.03;;;0.30;;
38935;SDS011;25541;47.458;9.644;2022-09-12T18:35:48;2.17;;;0.20;;
38935;SDS011;25541;47.458;9.644;2022-09-12T18:38:14;1.67;;;0.47;;
38935;SDS011;25541;47.458;9.644;2022-09-12T18:40:40;3.45;;;0.90;;
38935;SDS011;25541;47.458;9.644;2022-09-12T18:43:06;2.78;;;0.68;;
38935;SDS011;25541;47.458;9.644;2022-09-12T18:45:32;2.75;;;0.70;;
38935;SDS011;25541;47.458;9.644;2022-09-12T18:47:59;2.53;;;0.38;;
38935;SDS011;25541;47.458;9.644;2022-09-12T18:50:24;1.95;;;0.40;;
38935;SDS011;25541;47.458;9.644;2022-09-12T18:52:51;1.58;;;0.45;;
38935;SDS011;25541;47.458;9.644;2022-09-12T18:55:18;1.45;;;0.60;;
38935;SDS011;25541;47.458;9.644;2022-09-12T18:57:44;4.80;;;0.70;;
38935;SDS011;25541;47.458;9.644;2022-09-12T19:00:11;1.58;;;0.35;;
38935;SDS011;25541;47.458;9.644;2022-09-12T19:02:37;2.08;;;0.63;;
38935;SDS011;25541;47.458;9.644;2022-09-12T19:05:04;2.15;;;0.63;;
38935;SDS011;25541;47.458;9.644;2022-09-12T19:07:30;4.45;;;0.68;;
38935;SDS011;25541;47.458;9.644;2022-09-12T19:09:57;3.47;;;0.60;;
38935;SDS011;25541;47.458;9.644;2022-09-12T19:12:23;3.30;;;0.60;;
38935;SDS011;25541;47.458;9.644;2022-09-12T19:14:48;3.03;;;0.82;;
38935;SDS011;25541;47.458;9.644;2022-09-12T19:17:14;4.05;;;1.00;;
38935;SDS011;25541;47.458;9.644;2022-09-12T19:19:42;3.92;;;1.00;;
38935;SDS011;25541;47.458;9.644;2022-09-12T19:22:08;6.38;;;1.48;;
38935;SDS011;25541;47.458;9.644;2022-09-12T19:24:34;4.75;;;1.05;;
38935;SDS011;25541;47.458;9.644;2022-09-12T19:26:59;4.97;;;0.90;;
38935;SDS011;25541;47.458;9.644;2022-09-12T19:29:25;3.72;;;1.02;;
38935;SDS011;25541;47.458;9.644;2022-09-12T19:31:51;3.75;;;1.10;;
38935;SDS011;25541;47.458;9.644;2022-09-12T19:34:17;4.25;;;1.00;;
38935;SDS011;25541;47.458;9.644;2022-09-12T19:36:42;5.43;;;1.25;;
38935;SDS011;25541;47.458;9.644;2022-09-12T19:39:08;3.50;;;1.23;;
38935;SDS011;25541;47.458;9.644;2022-09-12T19:41:34;3.67;;;1.10;;
38935;SDS011;25541;47.458;9.644;2022-09-12T19:44:00;2.63;;;1.10;;
38935;SDS011;25541;47.458;9.644;2022-09-12T19:46:27;3.10;;;0.63;;
38935;SDS011;25541;47.458;9.644;2022-09-12T19:48:53;3.80;;;1.25;;
38935;SDS011;25541;47.458;9.644;2022-09-12T19:51:19;3.42;;;1.40;;
38935;SDS011;25541;47.458;9.644;2022-09-12T19:53:46;8.25;;;1.50;;
38935;SDS011;25541;47.458;9.644;2022-09-12T19:56:13;8.27;;;1.52;;
38935;SDS011;25541;47.458;9.644;2022-09-12T19:58:42;2.97;;;1.33;;
38935;SDS011;25541;47.458;9.644;2022-09-12T20:01:11;3.17;;;1.10;;
38935;SDS011;25541;47.458;9.644;2022-09-12T20:03:41;2.72;;;0.90;;
38935;SDS011;25541;47.458;9.644;2022-09-12T20:06:08;3.53;;;1.10;;
38935;SDS011;25541;47.458;9.644;2022-09-12T20:08:36;4.28;;;1.08;;
38935;SDS011;25541;47.458;9.644;2022-09-12T20:11:04;3.78;;;0.93;;
38935;SDS011;25541;47.458;9.644;2022-09-12T20:13:30;1.88;;;0.60;;
38935;SDS011;25541;47.458;9.644;2022-09-12T20:16:03;4.05;;;0.80;;
38935;SDS011;25541;47.458;9.644;2022-09-12T20:18:33;2.53;;;0.60;;
38935;SDS011;25541;47.458;9.644;2022-09-12T20:21:06;4.03;;;0.77;;